Time;durP1;ratioP1;P1;durP2;ratioP2;P2;SDS_P1;SDS_P2;PMS_P1;PMS_P2;Temp;Humidity;BMP_temperature;BMP_pressure;BME280_temperature;BME280_humidity;BME280_pressure;Samples;Min_cycle;Max_cycle;Signal;HPM_P1;HPM_P2
2023/08/24 00:01:28;;;;;;;7.60;6.67;;;;;;;20.71;100.00;100426.13;1424428;91;21643;-83
2023/08/24 00:03:55;;;;;;;10.95;7.47;;;;;;;20.71;100.00;100426.13;1433193;91;21555;-84
2023/08/24 00:06:21;;;;;;;9.80;6.87;;;;;;;20.63;100.00;100419.64;1427428;91;21497;-83
2023/08/24 00:08:47;;;;;;;9.45;6.83;;;;;;;20.59;100.00;100420.59;1422204;91;21638;-83
2023/08/24 00:11:14;;;;;;;11.25;7.85;;;;;;;20.47;100.00;100413.69;1427801;91;21392;-83
2023/08/24 00:13:48;;;;;;;9.60;7.20;;;;;;;20.47;100.00;100413.69;1431904;90;21571;-83
2023/08/24 00:16:12;;;;;;;11.60;8.28;;;;;;;20.52;100.00;100425.16;1434595;91;21590;-82
2023/08/24 00:18:39;;;;;;;11.95;7.72;;;;;;;20.55;100.00;100422.59;1406902;91;21333;-83
2023/08/24 00:21:05;;;;;;;10.23;8.93;;;;;;;20.54;100.00;100425.77;1426228;91;21422;-83
2023/08/24 00:23:31;;;;;;;11.20;8.53;;;;;;;20.53;100.00;100426.00;1409606;91;22384;-83
2023/08/24 00:25:58;;;;;;;12.40;9.05;;;;;;;20.50;100.00;100413.78;1423721;91;21555;-82
2023/08/24 00:28:25;;;;;;;9.68;8.68;;;;;;;20.47;100.00;100416.90;1429317;91;21399;-84
2023/08/24 00:30:51;;;;;;;11.83;9.03;;;;;;;20.42;100.00;100416.17;1413755;91;21600;-84
2023/08/24 00:33:19;;;;;;;12.47;9.15;;;;;;;20.42;100.00;100418.05;1425187;91;21385;-83
2023/08/24 00:35:45;;;;;;;8.40;7.50;;;;;;;20.41;100.00;100418.57;1425770;91;21539;-85
2023/08/24 00:38:12;;;;;;;8.75;7.45;;;;;;;20.43;100.00;100421.06;1425409;91;21444;-84
2023/08/24 00:40:38;;;;;;;13.70;8.80;;;;;;;20.44;100.00;100407.39;1426009;91;21406;-86
2023/08/24 00:43:05;;;;;;;10.28;8.03;;;;;;;20.43;100.00;100408.97;1425118;91;21374;-86
2023/08/24 00:45:33;;;;;;;9.55;8.33;;;;;;;20.44;100.00;100409.26;1435208;90;21935;-85
2023/08/24 00:47:59;;;;;;;17.00;8.50;;;;;;;20.42;100.00;100405.95;1428391;91;21521;-85
2023/08/24 00:50:25;;;;;;;9.10;8.20;;;;;;;20.39;100.00;100403.69;1401460;91;21414;-86
2023/08/24 00:52:53;;;;;;;10.70;7.58;;;;;;;20.40;100.00;100406.67;1429050;91;21400;-85
2023/08/24 00:55:21;;;;;;;11.83;8.15;;;;;;;20.42;100.00;100410.80;1435097;90;21354;-85
2023/08/24 00:57:48;;;;;;;11.33;9.18;;;;;;;20.42;100.00;100409.45;1437755;90;22233;-85
2023/08/24 01:00:15;;;;;;;11.43;8.18;;;;;;;20.44;100.00;100403.88;1433635;90;21464;-85
2023/08/24 01:02:42;;;;;;;9.88;8.35;;;;;;;20.44;100.00;100409.26;1430063;90;21390;-86
2023/08/24 01:05:08;;;;;;;9.85;8.33;;;;;;;20.43;100.00;100410.31;1427543;91;21532;-86
2023/08/24 01:07:38;;;;;;;12.58;9.33;;;;;;;20.41;100.00;100416.41;1424970;91;21650;-85
2023/08/24 01:10:07;;;;;;;13.10;9.25;;;;;;;20.36;100.00;100406.80;1423878;91;21368;-86
2023/08/24 01:12:56;;;;;;;12.68;10.00;;;;;;;20.35;100.00;100409.20;1426960;91;21361;-86
2023/08/24 01:15:56;;;;;;;12.63;11.30;;;;;;;20.36;100.00;100405.46;1435188;91;21398;-86
2023/08/24 01:18:26;;;;;;;14.05;9.73;;;;;;;20.34;100.00;100401.66;1424808;91;21311;-86
2023/08/24 01:20:57;;;;;;;10.53;8.73;;;;;;;20.33;100.00;100402.67;1429282;91;21495;-85
2023/08/24 01:23:47;;;;;;;14.40;10.15;;;;;;;20.32;100.00;100399.69;1426833;91;21583;-85
2023/08/24 01:26:19;;;;;;;15.85;10.78;;;;;;;20.27;100.00;100401.66;1428353;91;22448;-84
2023/08/24 01:28:47;;;;;;;14.68;10.38;;;;;;;20.23;100.00;100400.45;1433265;91;21368;-84
2023/08/24 01:31:17;;;;;;;14.10;10.40;;;;;;;20.22;100.00;100394.74;1434910;91;21397;-84
2023/08/24 01:33:44;;;;;;;15.53;9.78;;;;;;;20.19;100.00;100396.52;1432861;91;21509;-84
2023/08/24 01:36:16;;;;;;;14.25;10.08;;;;;;;20.18;100.00;100389.50;1429128;90;22264;-84
2023/08/24 01:38:43;;;;;;;14.43;11.10;;;;;;;20.18;100.00;100388.68;1436089;90;21508;-84
2023/08/24 01:41:27;;;;;;;12.53;11.18;;;;;;;20.17;100.00;100386.52;1433043;90;21382;-84
2023/08/24 01:43:54;;;;;;;14.18;10.90;;;;;;;20.17;100.00;100385.17;1432497;90;21367;-82
2023/08/24 01:46:24;;;;;;;14.28;11.88;;;;;;;20.18;100.00;100386.81;1428870;90;21338;-84
2023/08/24 01:48:53;;;;;;;14.43;11.53;;;;;;;20.16;100.00;100389.40;1432852;91;22315;-84
2023/08/24 01:51:20;;;;;;;15.32;10.18;;;;;;;20.14;100.00;100381.56;1441413;91;21398;-84
2023/08/24 01:53:46;;;;;;;17.62;12.78;;;;;;;20.15;100.00;100379.17;1430495;90;21576;-83
2023/08/24 01:56:16;;;;;;;20.75;11.03;;;;;;;20.15;100.00;100383.73;1427744;91;21345;-83
2023/08/24 01:58:42;;;;;;;15.58;11.40;;;;;;;20.12;100.00;100378.78;1430138;90;21463;-84
2023/08/24 02:01:10;;;;;;;14.55;11.68;;;;;;;20.09;100.00;100373.31;1424505;91;21611;-85
2023/08/24 02:03:38;;;;;;;14.10;11.25;;;;;;;20.05;100.00;100384.16;1425384;91;21924;-83
2023/08/24 02:06:06;;;;;;;20.92;13.10;;;;;;;20.03;100.00;100376.32;1432965;90;21530;-83
2023/08/24 02:08:33;;;;;;;16.05;11.93;;;;;;;20.03;100.00;100378.19;1431000;91;21574;-83
2023/08/24 02:10:59;;;;;;;13.62;11.33;;;;;;;20.05;100.00;100374.75;1440935;91;21486;-85
2023/08/24 02:13:25;;;;;;;24.50;13.35;;;;;;;20.06;100.00;100380.45;1429914;91;21605;-86
2023/08/24 02:16:05;;;;;;;17.70;13.05;;;;;;;20.08;100.00;100379.70;1410570;91;21362;-86
2023/08/24 02:18:32;;;;;;;17.98;13.10;;;;;;;20.10;100.00;100380.84;1424373;90;21390;-83
2023/08/24 02:20:59;;;;;;;22.75;14.23;;;;;;;20.10;100.00;100385.69;1421751;91;21486;-83
2023/08/24 02:23:25;;;;;;;23.32;12.18;;;;;;;20.10;100.00;100382.19;1430884;91;21591;-83
2023/08/24 02:25:51;;;;;;;19.40;13.53;;;;;;;20.09;100.00;100380.02;1430273;91;21339;-85
2023/08/24 02:28:18;;;;;;;17.40;12.00;;;;;;;20.12;100.00;100379.60;1423155;91;21434;-84
2023/08/24 02:30:44;;;;;;;14.73;12.50;;;;;;;20.16;100.00;100381.34;1427960;91;21383;-83
2023/08/24 02:33:10;;;;;;;16.35;13.05;;;;;;;20.20;100.00;100380.72;1425604;91;21651;-84
2023/08/24 02:35:37;;;;;;;16.02;12.25;;;;;;;20.26;100.00;100385.23;1428472;91;22203;-83
2023/08/24 02:38:04;;;;;;;14.28;11.88;;;;;;;20.30;100.00;100386.98;1428570;91;21434;-83
2023/08/24 02:40:30;;;;;;;15.75;12.18;;;;;;;20.30;100.00;100386.98;1439984;90;22477;-83
2023/08/24 02:42:56;;;;;;;16.05;13.13;;;;;;;20.29;100.00;100390.19;1416222;91;22537;-82
2023/08/24 02:45:23;;;;;;;21.00;13.38;;;;;;;20.32;100.00;100388.94;1404173;91;22006;-84
2023/08/24 02:47:49;;;;;;;14.78;12.47;;;;;;;20.33;100.00;100388.42;1430870;90;21324;-84
2023/08/24 02:50:15;;;;;;;16.65;13.20;;;;;;;20.33;100.00;100391.92;1425444;90;21655;-83
2023/08/24 02:52:41;;;;;;;19.62;12.15;;;;;;;20.38;100.00;100389.95;1421765;91;21442;-84
2023/08/24 02:55:09;;;;;;;15.28;12.65;;;;;;;20.43;100.00;100394.18;1430722;90;22241;-84
2023/08/24 02:57:36;;;;;;;14.87;11.28;;;;;;;20.44;100.00;100394.47;1431755;90;21537;-83
2023/08/24 03:00:24;;;;;;;14.78;11.80;;;;;;;20.43;100.00;100390.97;1407051;91;22888;-83
2023/08/24 03:06:51;;;;;;;13.50;11.25;;;;;;;20.42;100.00;100400.58;1431462;91;21340;-85
2023/08/24 03:09:18;;;;;;;14.45;12.73;;;;;;;20.36;100.00;100398.73;1423357;91;22398;-84
2023/08/24 03:11:44;;;;;;;19.67;12.75;;;;;;;20.29;100.00;100394.22;1395943;91;22429;-84
2023/08/24 03:14:10;;;;;;;19.65;11.75;;;;;;;20.25;100.00;100399.72;1428050;90;22411;-84
2023/08/24 03:16:39;;;;;;;13.83;11.15;;;;;;;20.24;100.00;100402.08;1429888;91;21523;-84
2023/08/24 03:19:05;;;;;;;19.48;12.58;;;;;;;20.25;100.00;100393.50;1431622;91;21345;-85
2023/08/24 03:21:31;;;;;;;19.45;12.25;;;;;;;20.26;100.00;100402.70;1431037;91;21631;-84
2023/08/24 03:23:58;;;;;;;20.32;13.28;;;;;;;20.29;100.00;100404.15;1411649;91;21532;-84
2023/08/24 03:26:24;;;;;;;21.07;12.15;;;;;;;20.26;100.00;100410.77;1425914;91;21392;-84
2023/08/24 03:28:51;;;;;;;16.52;13.43;;;;;;;20.25;100.00;100415.84;1434826;90;21604;-86
2023/08/24 03:31:17;;;;;;;24.15;13.43;;;;;;;20.28;100.00;100416.77;1436454;90;21361;-84
2023/08/24 03:33:43;;;;;;;17.15;12.20;;;;;;;20.34;100.00;100417.78;1424847;91;21556;-86
2023/08/24 03:36:10;;;;;;;13.13;11.83;;;;;;;20.34;100.00;100414.25;1431070;91;21390;-85
2023/08/24 03:38:36;;;;;;;17.52;12.30;;;;;;;20.31;100.00;100414.14;1432403;91;22291;-86
2023/08/24 03:41:04;;;;;;;17.25;13.45;;;;;;;20.31;100.00;100416.02;1424742;91;21515;-85
2023/08/24 03:43:35;;;;;;;19.40;11.05;;;;;;;20.33;100.00;100413.42;1431227;90;21375;-86
2023/08/24 03:46:03;;;;;;;13.35;11.95;;;;;;;20.37;100.00;100413.81;1433655;90;22404;-86
2023/08/24 03:48:30;;;;;;;14.70;11.40;;;;;;;20.41;100.00;100417.75;1432645;91;21561;-85
2023/08/24 03:50:57;;;;;;;14.55;11.65;;;;;;;20.41;100.00;100416.41;1419509;91;21398;-87
2023/08/24 03:53:24;;;;;;;19.23;13.50;;;;;;;20.44;100.00;100420.83;1430904;91;22342;-88
2023/08/24 03:59:51;;;;;;;14.35;12.85;;;;;;;20.48;100.00;100421.22;1429739;91;21457;-86
2023/08/24 04:02:45;;;;;;;23.18;13.70;;;;;;;20.52;100.00;100421.13;1429886;90;21449;-87
2023/08/24 04:05:12;;;;;;;19.17;12.60;;;;;;;20.54;100.00;100420.92;1431687;90;21360;-85
2023/08/24 04:07:40;;;;;;;20.37;12.30;;;;;;;20.57;100.00;100422.69;1429237;91;21449;-86
2023/08/24 04:10:08;;;;;;;17.05;11.78;;;;;;;20.60;100.00;100423.61;1424579;91;21467;-85
2023/08/24 04:12:34;;;;;;;17.02;12.43;;;;;;;20.64;100.00;100423.47;1413072;91;21482;-85
2023/08/24 04:15:01;;;;;;;12.85;10.95;;;;;;;20.68;100.00;100419.30;1435887;90;21547;-85
2023/08/24 04:17:27;;;;;;;13.65;10.88;;;;;;;20.72;100.00;100421.89;1434359;91;21323;-85
2023/08/24 04:19:53;;;;;;;12.47;11.18;;;;;;;20.73;100.00;100423.52;1432311;91;21626;-86
2023/08/24 04:22:20;;;;;;;12.20;10.95;;;;;;;20.73;100.00;100424.05;1425603;91;21398;-85
2023/08/24 04:24:46;;;;;;;20.62;11.25;;;;;;;20.78;100.00;100424.77;1430176;90;21382;-84
2023/08/24 04:27:12;;;;;;;19.57;12.20;;;;;;;20.85;100.00;100421.50;1427894;91;21428;-87
2023/08/24 04:29:38;;;;;;;14.80;10.90;;;;;;;20.93;100.00;100434.70;1433084;91;21582;-87
2023/08/24 04:32:06;;;;;;;17.98;10.98;;;;;;;20.98;100.00;100432.73;1434458;91;21813;-85
2023/08/24 04:34:32;;;;;;;13.95;10.53;;;;;;;21.00;100.00;100428.75;1432191;91;21539;-86
2023/08/24 04:36:58;;;;;;;15.38;10.95;;;;;;;21.04;100.00;100428.64;1433729;90;21479;-86
2023/08/24 04:39:24;;;;;;;14.45;10.68;;;;;;;21.06;100.00;100424.38;1414605;91;21393;-86
2023/08/24 04:41:51;;;;;;;18.20;10.32;;;;;;;21.10;100.00;100426.95;1429981;91;21597;-87
2023/08/24 04:44:17;;;;;;;20.00;10.58;;;;;;;21.18;100.00;100422.67;1431841;90;21519;-88
2023/08/24 04:46:53;;;;;;;12.82;10.05;;;;;;;21.27;100.00;100427.27;1413938;91;21488;-86
2023/08/24 04:49:19;;;;;;;14.47;11.10;;;;;;;21.36;100.00;100425.95;1417026;91;21377;-85
2023/08/24 04:51:46;;;;;;;15.25;11.35;;;;;;;21.42;100.00;100426.98;1431218;90;21375;-86
2023/08/24 04:54:12;;;;;;;20.40;11.97;;;;;;;21.42;100.00;100435.88;1433281;91;21405;-88
2023/08/24 04:56:38;;;;;;;18.70;11.12;;;;;;;21.42;100.00;100434.52;1427991;91;21413;-88
2023/08/24 04:59:05;;;;;;;18.07;12.10;;;;;;;21.43;100.00;100440.20;1415554;91;21377;-88
2023/08/24 05:01:34;;;;;;;19.62;12.28;;;;;;;21.46;100.00;100438.41;1429745;90;21558;-87
2023/08/24 05:04:01;;;;;;;20.72;11.35;;;;;;;21.46;100.00;100431.69;1425383;91;21419;-86
2023/08/24 05:06:27;;;;;;;19.48;13.13;;;;;;;21.47;100.00;100432.01;1427619;90;21743;-87
2023/08/24 05:08:54;;;;;;;16.35;12.05;;;;;;;21.51;100.00;100441.28;1429328;91;21353;-87
2023/08/24 05:11:24;;;;;;;15.03;12.07;;;;;;;21.54;100.00;100429.25;1425120;91;21331;-87
2023/08/24 05:13:51;;;;;;;16.10;13.18;;;;;;;21.54;100.00;100435.45;1439462;90;21354;-89
2023/08/24 05:16:17;;;;;;;16.65;13.08;;;;;;;21.57;100.00;100428.28;1428480;91;21362;-86
2023/08/24 05:18:43;;;;;;;13.78;12.18;;;;;;;21.55;100.00;100427.70;1433630;90;21323;-88
2023/08/24 05:21:09;;;;;;;21.37;12.33;;;;;;;21.57;100.00;100426.94;1432308;90;21427;-84
2023/08/24 05:23:36;;;;;;;13.55;12.03;;;;;;;21.56;100.00;100430.69;1430132;90;21442;-89
2023/08/24 05:26:05;;;;;;;13.90;12.43;;;;;;;21.66;100.00;100434.75;1426970;91;21539;-86
2023/08/24 05:28:32;;;;;;;20.40;12.33;;;;;;;21.71;100.00;100433.56;1417785;91;21639;-85
2023/08/24 05:30:58;;;;;;;19.75;13.38;;;;;;;21.72;100.00;100435.20;1430811;90;21412;-86
2023/08/24 05:33:30;;;;;;;13.28;11.95;;;;;;;21.73;100.00;100439.04;1429913;90;21456;-87
2023/08/24 05:35:56;;;;;;;16.95;12.70;;;;;;;21.67;100.00;100437.77;1433759;90;21441;-86
2023/08/24 05:38:22;;;;;;;15.70;12.50;;;;;;;21.66;100.00;100438.78;1425792;90;21405;-87
2023/08/24 05:40:49;;;;;;;20.62;12.33;;;;;;;21.66;100.00;100439.60;1400286;91;21421;-87
2023/08/24 05:43:16;;;;;;;13.80;12.33;;;;;;;21.61;100.00;100441.63;1433498;91;21450;-85
2023/08/24 05:45:44;;;;;;;17.70;13.45;;;;;;;21.71;100.00;100439.77;1435762;90;21598;-86
2023/08/24 05:48:14;;;;;;;13.18;11.83;;;;;;;21.80;100.00;100437.09;1435442;91;21376;-85
2023/08/24 05:50:47;;;;;;;15.50;13.10;;;;;;;21.91;100.00;100431.52;1432660;90;21405;-85
2023/08/24 05:53:14;;;;;;;16.80;12.25;;;;;;;21.98;100.00;100434.13;1426385;91;21383;-86
2023/08/24 05:55:40;;;;;;;18.60;13.28;;;;;;;22.06;100.00;100445.45;1429981;91;21258;-87
2023/08/24 05:58:06;;;;;;;18.17;12.23;;;;;;;22.12;100.00;100437.52;1429046;90;21375;-86
2023/08/24 06:00:33;;;;;;;13.22;10.90;;;;;;;22.20;100.00;100439.96;1429008;90;21426;-88
2023/08/24 06:02:59;;;;;;;12.55;11.35;;;;;;;22.31;100.00;100439.22;1432864;90;21500;-85
2023/08/24 06:05:26;;;;;;;13.05;11.73;;;;;;;22.39;100.00;100438.11;1434811;90;21420;-87
2023/08/24 06:07:52;;;;;;;13.20;11.80;;;;;;;22.48;100.00;100437.56;1432540;90;21280;-85
2023/08/24 06:10:19;;;;;;;15.48;12.30;;;;;;;22.51;100.00;100427.67;1422897;91;22935;-88
2023/08/24 06:12:45;;;;;;;12.70;10.93;;;;;;;22.63;100.00;100432.31;1407117;91;21454;-85
2023/08/24 06:15:13;;;;;;;21.35;11.00;;;;;;;22.73;100.00;100428.56;1429766;91;21375;-89
2023/08/24 06:17:39;;;;;;;13.72;11.57;;;;;;;22.89;100.00;100427.91;1411226;91;22323;-84
2023/08/24 06:20:10;;;;;;;13.80;10.50;;;;;;;23.01;100.00;100435.26;1410618;91;21585;-84
2023/08/24 06:22:40;;;;;;;15.38;10.85;;;;;;;23.10;100.00;100436.57;1424864;91;21391;-84
2023/08/24 06:25:08;;;;;;;14.70;10.60;;;;;;;23.22;100.00;100426.66;1433443;90;21367;-85
2023/08/24 06:27:35;;;;;;;15.83;12.23;;;;;;;23.34;100.00;100436.95;1426110;91;21480;-90
2023/08/24 06:30:03;;;;;;;23.55;11.93;;;;;;;23.45;100.00;100435.83;1436350;90;21346;-88
2023/08/24 06:32:29;;;;;;;19.37;10.45;;;;;;;23.56;100.00;100429.12;1431136;90;21455;-89
2023/08/24 06:34:55;;;;;;;12.05;10.05;;;;;;;23.64;100.00;100428.76;1426205;91;21613;-87
2023/08/24 06:37:22;;;;;;;15.10;10.50;;;;;;;23.65;100.00;100434.48;1424499;91;21316;-90
2023/08/24 06:39:48;;;;;;;10.95;9.70;;;;;;;23.68;100.00;100430.48;1423767;91;21531;-87
2023/08/24 06:42:14;;;;;;;20.60;10.80;;;;;;;23.76;100.00;100436.90;1432535;90;21354;-91
2023/08/24 06:44:41;;;;;;;17.10;10.78;;;;;;;23.80;100.00;100436.74;1439197;90;21397;-89
2023/08/24 06:47:08;;;;;;;12.88;10.20;;;;;;;23.91;100.00;100436.96;1425254;91;21449;-86
2023/08/24 06:49:34;;;;;;;13.93;10.38;;;;;;;24.00;100.00;100434.22;1435764;91;21375;-88
2023/08/24 06:52:02;;;;;;;13.90;11.08;;;;;;;24.00;100.00;100437.74;1470681;88;21421;-88
2023/08/24 06:54:28;;;;;;;14.18;9.73;;;;;;;24.14;100.00;100439.67;1471766;88;21317;-87
2023/08/24 06:56:55;;;;;;;11.03;8.85;;;;;;;24.30;100.00;100436.22;1422617;91;21519;-88
2023/08/24 06:59:21;;;;;;;18.27;9.85;;;;;;;24.41;100.00;100441.33;1472498;88;22182;-87
2023/08/24 07:01:48;;;;;;;10.43;9.25;;;;;;;24.48;100.00;100440.67;1470292;88;21560;-91
2023/08/24 07:04:14;;;;;;;14.10;9.00;;;;;;;24.52;100.00;100442.40;1436043;90;21397;-91
2023/08/24 07:06:42;;;;;;;10.93;8.15;;;;;;;24.56;100.00;100442.73;1471066;88;21486;-86
2023/08/24 07:09:08;;;;;;;12.60;9.35;;;;;;;24.59;100.00;100447.13;1422225;91;21568;-91
2023/08/24 07:11:34;;;;;;;11.97;8.75;;;;;;;24.66;100.00;100449.72;1450968;88;22002;-88
2023/08/24 07:14:00;;;;;;;33.38;9.85;;;;;;;24.80;100.00;100452.94;1473126;88;21391;-87
2023/08/24 07:16:27;;;;;;;13.08;9.75;;;;;;;24.94;100.00;100457.81;1435196;90;21576;-90
2023/08/24 07:18:53;;;;;;;14.40;9.15;;;;;;;25.04;100.00;100454.50;1436959;90;21545;-86
2023/08/24 07:21:19;;;;;;;10.48;8.83;;;;;;;25.12;100.00;100451.95;1422923;91;21563;-87
2023/08/24 07:23:45;;;;;;;10.98;9.00;;;;;;;25.13;100.00;100453.03;1436137;91;21323;-88
2023/08/24 07:26:13;;;;;;;12.60;7.85;;;;;;;25.18;100.00;100449.64;1411816;91;22366;-86
2023/08/24 07:28:39;;;;;;;14.87;9.53;;;;;;;25.30;100.00;100459.05;1470104;88;21361;-90
2023/08/24 07:31:14;;;;;;;10.50;8.50;;;;;;;25.37;100.00;100459.17;1449376;88;21531;-89
2023/08/24 07:33:43;;;;;;;11.45;9.33;;;;;;;25.49;100.00;100462.34;1433177;90;21463;-86
2023/08/24 07:36:10;;;;;;;10.85;9.08;;;;;;;25.57;100.00;100456.52;1467922;88;21479;-89
2023/08/24 07:38:36;;;;;;;9.73;7.53;;;;;;;25.61;100.00;100455.80;1434845;90;21404;-87
2023/08/24 07:41:03;;;;;;;14.50;8.53;;;;;;;25.72;100.00;100460.00;1449230;88;22394;-88
2023/08/24 07:43:29;;;;;;;10.00;8.35;;;;;;;25.82;100.00;100458.82;1436163;91;21324;-89
2023/08/24 07:49:19;;;;;;;11.97;7.87;;;;;;;25.90;100.00;100454.37;1428426;90;21756;-87
2023/08/24 07:51:47;;;;;;;9.60;8.55;;;;;;;26.09;100.00;100454.36;1430564;90;21360;-89
2023/08/24 07:54:13;;;;;;;10.55;8.60;;;;;;;26.11;100.00;100450.06;1412633;91;21480;-87
2023/08/24 07:56:39;;;;;;;20.02;9.08;;;;;;;26.10;100.00;100452.49;1434074;90;21374;-87
2023/08/24 07:59:06;;;;;;;12.50;9.23;;;;;;;26.25;100.00;100451.34;1431807;90;21500;-88
2023/08/24 08:01:33;;;;;;;9.05;8.18;;;;;;;26.31;100.00;100458.47;1430751;90;21404;-86
2023/08/24 08:04:00;;;;;;;15.03;8.48;;;;;;;26.27;100.00;100456.53;1423973;91;21442;-87
2023/08/24 08:06:26;;;;;;;12.00;8.65;;;;;;;26.33;100.00;100456.88;1435317;90;21522;-86
2023/08/24 08:08:53;;;;;;;14.80;8.83;;;;;;;26.41;100.00;100450.98;1423537;91;22336;-86
2023/08/24 08:11:21;;;;;;;12.18;8.80;;;;;;;26.49;100.00;100451.91;1438898;90;21346;-84
2023/08/24 08:13:47;;;;;;;9.88;7.83;;;;;;;26.66;100.00;100459.20;1422826;90;22321;-88
2023/08/24 08:16:14;;;;;;;12.70;8.13;;;;;;;26.84;100.00;100460.22;1426314;90;21826;-87
2023/08/24 08:18:40;;;;;;;11.33;8.18;;;;;;;26.97;100.00;100457.11;1432314;90;21542;-89
2023/08/24 08:21:12;;;;;;;17.82;8.20;;;;;;;27.10;100.00;100460.48;1425140;91;21427;-87
2023/08/24 08:23:39;;;;;;;12.07;7.47;;;;;;;27.00;100.00;100463.39;1431695;91;22418;-89
2023/08/24 08:26:05;;;;;;;8.93;7.92;;;;;;;27.07;100.00;100459.64;1412869;91;22492;-88
2023/08/24 08:28:34;;;;;;;14.93;7.40;;;;;;;27.13;100.00;100462.17;1424166;91;21430;-89
2023/08/24 08:31:00;;;;;;;8.05;7.17;;;;;;;27.23;100.00;100462.29;1423451;91;21760;-90
2023/08/24 08:33:26;;;;;;;9.55;8.15;;;;;;;27.35;100.00;100462.67;1411199;91;22272;-90
2023/08/24 08:35:52;;;;;;;8.95;7.87;;;;;;;27.56;100.00;100463.11;1428646;90;21589;-89
2023/08/24 08:38:21;;;;;;;28.90;8.70;;;;;;;27.67;100.00;100465.38;1426837;91;21481;-87
2023/08/24 08:40:48;;;;;;;8.88;7.60;;;;;;;27.66;100.00;100462.39;1433077;90;21471;-89
2023/08/24 08:43:15;;;;;;;11.57;7.78;;;;;;;27.77;100.00;100470.09;1429346;90;22418;-90
2023/08/24 08:45:41;;;;;;;10.53;7.83;;;;;;;27.85;100.00;100466.38;1432959;91;22373;-89
2023/08/24 08:48:09;;;;;;;17.17;8.68;;;;;;;27.96;100.00;100465.88;1432354;90;21323;-89
2023/08/24 08:50:35;;;;;;;10.82;7.37;;;;;;;28.01;100.00;100461.03;1429657;90;21503;-91
2023/08/24 08:53:02;;;;;;;11.12;7.00;;;;;;;28.09;100.00;100465.44;1430694;90;21451;-89
2023/08/24 08:55:38;;;;;;;10.93;7.00;;;;;;;28.16;100.00;100467.09;1421690;91;21801;-89
2023/08/24 08:58:05;;;;;;;8.05;6.83;;;;;;;28.21;100.00;100455.70;1357198;90;22166;-88
2023/08/24 09:00:32;;;;;;;8.75;7.85;;;;;;;28.28;100.00;100459.53;1437608;91;21553;-88
2023/08/24 09:02:59;;;;;;;10.60;7.22;;;;;;;28.37;100.00;100461.21;1429716;90;21354;-89
2023/08/24 09:05:26;;;;;;;8.70;7.80;;;;;;;28.32;100.00;100461.48;1434291;91;21316;-87
2023/08/24 09:07:56;;;;;;;10.68;7.53;;;;;;;28.46;100.00;100456.95;1432342;91;21398;-88
2023/08/24 09:10:23;;;;;;;10.65;7.62;;;;;;;28.51;100.00;100452.87;1405047;91;21353;-90
2023/08/24 09:12:50;;;;;;;9.83;7.30;;;;;;;28.58;100.00;100450.73;1431135;90;21525;-88
2023/08/24 09:15:30;;;;;;;10.93;6.72;;;;;;;28.58;100.00;100448.56;1426425;91;21341;-89
2023/08/24 09:17:56;;;;;;;7.92;7.12;;;;;;;28.55;100.00;100448.55;1359261;92;22197;-88
2023/08/24 09:20:25;;;;;;;6.97;6.12;;;;;;;28.63;100.00;100438.51;1389217;91;21449;-88
2023/08/24 09:22:56;;;;;;;8.13;6.93;;;;;;;28.59;100.00;100445.55;1431449;90;21501;-87
2023/08/24 09:25:21;;;;;;;7.62;6.47;;;;;;;28.61;100.00;100446.11;1430598;91;21478;-89
2023/08/24 09:27:59;;;;;;;7.10;6.37;;;;;;;28.57;100.00;100443.66;1413268;91;21355;-88
2023/08/24 09:30:34;;;;;;;9.80;5.95;;;;;;;28.71;100.00;100448.85;1425554;91;22480;-89
2023/08/24 09:33:06;;;;;;;11.00;6.17;;;;;;;28.75;100.00;100444.53;1430564;90;22336;-88
2023/08/24 09:35:37;;;;;;;9.45;6.15;;;;;;;28.85;100.00;100441.00;1430114;91;22403;-89
2023/08/24 09:38:22;;;;;;;8.43;5.90;;;;;;;29.07;100.00;100443.53;1429631;91;21370;-88
2023/08/24 09:40:54;;;;;;;9.40;6.33;;;;;;;29.26;100.00;100440.27;1429339;90;21531;-88
2023/08/24 09:43:22;;;;;;;7.33;6.40;;;;;;;29.23;100.00;100438.39;1429133;90;21397;-84
2023/08/24 09:45:53;;;;;;;10.38;6.12;;;;;;;29.33;100.00;100443.56;1359006;90;22175;-88
2023/08/24 09:48:20;;;;;;;8.08;5.92;;;;;;;29.37;100.00;100440.55;1421961;91;22219;-88
2023/08/24 09:50:48;;;;;;;8.33;6.20;;;;;;;29.53;100.00;100436.75;1423554;91;21465;-89
2023/08/24 09:53:22;;;;;;;10.35;6.67;;;;;;;29.66;100.00;100437.59;1433289;91;21502;-88
2023/08/24 09:56:01;;;;;;;10.70;6.55;;;;;;;29.68;100.00;100438.12;1433399;90;21497;-89
2023/08/24 09:58:29;;;;;;;6.50;5.78;;;;;;;29.58;97.77;100442.20;1430425;91;21382;-88
2023/08/24 10:04:56;;;;;;;10.13;5.60;;;;;;;29.71;100.00;100441.40;1435548;91;21332;-90
2023/08/24 10:07:25;;;;;;;9.60;5.78;;;;;;;29.81;100.00;100438.67;1433375;90;21524;-86
2023/08/24 10:10:06;;;;;;;6.27;4.93;;;;;;;29.80;95.35;100437.83;1428384;91;21451;-89
2023/08/24 10:12:38;;;;;;;7.80;5.35;;;;;;;29.76;91.38;100434.58;1431778;91;21391;-88
2023/08/24 10:15:10;;;;;;;8.10;5.80;;;;;;;29.95;87.52;100433.43;1435501;90;21581;-88
2023/08/24 10:17:37;;;;;;;7.67;5.30;;;;;;;30.01;83.21;100433.69;1437391;90;21457;-89
2023/08/24 10:20:11;;;;;;;8.93;5.62;;;;;;;30.16;87.00;100423.30;1423451;91;22449;-89
2023/08/24 10:22:37;;;;;;;11.05;6.12;;;;;;;30.26;84.63;100416.45;1440786;90;21346;-87
2023/08/24 10:25:04;;;;;;;8.55;5.17;;;;;;;30.43;84.68;100419.66;1430815;90;21530;-87
2023/08/24 10:27:30;;;;;;;9.60;5.60;;;;;;;30.61;83.48;100420.11;1423006;91;22285;-88
2023/08/24 10:29:58;;;;;;;12.55;5.35;;;;;;;30.70;83.93;100426.61;1430985;91;21329;-89
2023/08/24 10:32:26;;;;;;;6.17;5.45;;;;;;;30.69;71.38;100418.97;1432847;90;21368;-89
2023/08/24 10:34:53;;;;;;;6.85;5.33;;;;;;;30.60;66.56;100422.59;1430279;91;21427;-89
2023/08/24 10:37:27;;;;;;;6.50;5.28;;;;;;;30.54;52.58;100421.80;1434408;90;21338;-89
2023/08/24 10:39:54;;;;;;;6.97;5.40;;;;;;;30.44;53.57;100421.83;1429473;91;21475;-91
2023/08/24 10:42:25;;;;;;;7.92;5.25;;;;;;;30.41;55.56;100421.03;1439982;90;21323;-89
2023/08/24 10:44:51;;;;;;;9.33;5.83;;;;;;;30.25;52.02;100412.10;1434022;91;21673;-80
2023/08/24 10:47:22;;;;;;;7.50;5.28;;;;;;;30.46;53.96;100409.53;1433253;91;21473;-80
2023/08/24 10:50:02;;;;;;;6.20;5.60;;;;;;;30.61;53.05;100405.09;1437154;90;21537;-80
2023/08/24 10:52:34;;;;;;;;;;;;;;;30.60;53.56;100400.73;1437103;91;22250;-81
2023/08/24 10:55:24;;;;;;;10.48;5.03;;;;;;;30.47;52.30;100401.62;1436123;91;20229;-81
2023/08/24 10:57:59;;;;;;;8.68;5.55;;;;;;;30.47;49.41;100399.42;1434517;91;21458;-79
2023/08/24 11:00:30;;;;;;;5.85;5.12;;;;;;;30.67;49.87;100396.61;1420533;91;21466;-81
2023/08/24 11:02:57;;;;;;;6.45;5.37;;;;;;;30.87;49.04;100401.69;1422893;91;21326;-86
2023/08/24 11:05:35;;;;;;;7.00;5.08;;;;;;;31.04;49.83;100404.84;1432349;90;21597;-86
2023/08/24 11:08:07;;;;;;;6.70;5.17;;;;;;;31.07;44.87;100402.09;1428829;91;21442;-85
2023/08/24 11:10:48;;;;;;;5.87;5.30;;;;;;;31.18;45.00;100400.91;1410694;91;21481;-85
2023/08/24 11:13:16;;;;;;;7.37;5.05;;;;;;;30.79;43.04;100399.02;1430119;90;21493;-85
2023/08/24 11:16:04;;;;;;;10.80;5.67;;;;;;;31.03;45.01;100399.12;1430809;90;21560;-88
2023/08/24 11:18:26;;;;;;;5.37;4.72;;;;;;;31.19;45.25;100397.09;1430284;90;21360;-82
2023/08/24 11:21:06;;;;;;;8.53;5.28;;;;;;;31.33;44.79;100389.84;1408646;93;21597;-81
2023/08/24 11:23:33;;;;;;;7.92;4.83;;;;;;;31.52;45.32;100386.44;1402443;93;21502;-81
2023/08/24 11:26:00;;;;;;;7.10;5.12;;;;;;;31.60;44.10;100384.45;1399294;93;21442;-81
2023/08/24 11:28:30;;;;;;;13.90;5.10;;;;;;;31.51;43.23;100382.09;1399382;93;21376;-80
2023/08/24 11:30:58;;;;;;;10.60;5.53;;;;;;;31.44;43.45;100383.21;1403824;93;21428;-80